sensor_id;sensor_type;location;lat;lon;timestamp;P1;durP1;ratioP1;P2;durP2;ratioP2
16593;SDS011;8410;52.532;13.336;2023-07-31T00:00:47;5.60;;;2.00;;
16593;SDS011;8410;52.532;13.336;2023-07-31T00:03:16;5.33;;;2.00;;
16593;SDS011;8410;52.532;13.336;2023-07-31T00:05:43;4.27;;;2.20;;
16593;SDS011;8410;52.532;13.336;2023-07-31T00:08:11;4.40;;;2.17;;
16593;SDS011;8410;52.532;13.336;2023-07-31T00:10:38;6.47;;;2.10;;
16593;SDS011;8410;52.532;13.336;2023-07-31T00:13:06;3.63;;;2.13;;
16593;SDS011;8410;52.532;13.336;2023-07-31T00:15:33;4.30;;;2.10;;
16593;SDS011;8410;52.532;13.336;2023-07-31T00:18:00;4.77;;;2.10;;
16593;SDS011;8410;52.532;13.336;2023-07-31T00:20:30;4.13;;;2.47;;
16593;SDS011;8410;52.532;13.336;2023-07-31T00:22:57;4.47;;;2.10;;
16593;SDS011;8410;52.532;13.336;2023-07-31T00:25:23;4.23;;;2.23;;
16593;SDS011;8410;52.532;13.336;2023-07-31T00:27:51;5.03;;;1.90;;
16593;SDS011;8410;52.532;13.336;2023-07-31T00:30:18;3.23;;;1.80;;
16593;SDS011;8410;52.532;13.336;2023-07-31T00:32:46;4.90;;;2.50;;
16593;SDS011;8410;52.532;13.336;2023-07-31T00:35:14;2.40;;;2.03;;
16593;SDS011;8410;52.532;13.336;2023-07-31T00:37:42;5.53;;;2.40;;
16593;SDS011;8410;52.532;13.336;2023-07-31T00:40:10;3.83;;;2.00;;
16593;SDS011;8410;52.532;13.336;2023-07-31T00:42:37;5.73;;;2.20;;
16593;SDS011;8410;52.532;13.336;2023-07-31T00:45:05;5.03;;;2.00;;
16593;SDS011;8410;52.532;13.336;2023-07-31T00:47:33;5.03;;;2.40;;
16593;SDS011;8410;52.532;13.336;2023-07-31T00:50:00;4.13;;;1.80;;
16593;SDS011;8410;52.532;13.336;2023-07-31T00:52:28;5.53;;;2.27;;
16593;SDS011;8410;52.532;13.336;2023-07-31T00:54:57;3.00;;;2.00;;
16593;SDS011;8410;52.532;13.336;2023-07-31T00:57:24;4.80;;;2.20;;
16593;SDS011;8410;52.532;13.336;2023-07-31T00:59:52;4.30;;;2.20;;
16593;SDS011;8410;52.532;13.336;2023-07-31T01:02:19;3.00;;;2.10;;
16593;SDS011;8410;52.532;13.336;2023-07-31T01:04:47;4.40;;;2.10;;
16593;SDS011;8410;52.532;13.336;2023-07-31T01:07:17;5.00;;;2.27;;
16593;SDS011;8410;52.532;13.336;2023-07-31T01:09:53;2.33;;;2.00;;
16593;SDS011;8410;52.532;13.336;2023-07-31T01:12:30;4.40;;;2.10;;
16593;SDS011;8410;52.532;13.336;2023-07-31T01:15:02;4.10;;;2.23;;
16593;SDS011;8410;52.532;13.336;2023-07-31T01:17:31;3.77;;;2.20;;
16593;SDS011;8410;52.532;13.336;2023-07-31T01:19:59;3.40;;;2.10;;
16593;SDS011;8410;52.532;13.336;2023-07-31T01:22:40;3.70;;;2.10;;
16593;SDS011;8410;52.532;13.336;2023-07-31T01:28:27;2.33;;;1.87;;
16593;SDS011;8410;52.532;13.336;2023-07-31T01:31:04;4.10;;;3.73;;
16593;SDS011;8410;52.532;13.336;2023-07-31T01:33:34;3.50;;;2.30;;
16593;SDS011;8410;52.532;13.336;2023-07-31T01:36:04;4.47;;;2.47;;
16593;SDS011;8410;52.532;13.336;2023-07-31T01:38:33;5.37;;;2.73;;
16593;SDS011;8410;52.532;13.336;2023-07-31T01:41:01;5.07;;;2.20;;
16593;SDS011;8410;52.532;13.336;2023-07-31T01:43:29;4.63;;;3.67;;
16593;SDS011;8410;52.532;13.336;2023-07-31T01:45:57;4.07;;;3.10;;
16593;SDS011;8410;52.532;13.336;2023-07-31T01:48:24;2.77;;;2.50;;
16593;SDS011;8410;52.532;13.336;2023-07-31T01:50:52;3.90;;;2.50;;
16593;SDS011;8410;52.532;13.336;2023-07-31T01:53:19;4.13;;;2.77;;
16593;SDS011;8410;52.532;13.336;2023-07-31T01:55:47;3.40;;;2.50;;
16593;SDS011;8410;52.532;13.336;2023-07-31T01:58:15;3.70;;;2.80;;
16593;SDS011;8410;52.532;13.336;2023-07-31T02:00:43;5.43;;;2.73;;
16593;SDS011;8410;52.532;13.336;2023-07-31T02:03:10;4.97;;;2.80;;
16593;SDS011;8410;52.532;13.336;2023-07-31T02:05:43;3.90;;;2.43;;
16593;SDS011;8410;52.532;13.336;2023-07-31T02:08:11;6.10;;;2.60;;
16593;SDS011;8410;52.532;13.336;2023-07-31T02:10:39;4.13;;;2.50;;
16593;SDS011;8410;52.532;13.336;2023-07-31T02:13:06;3.17;;;2.47;;
16593;SDS011;8410;52.532;13.336;2023-07-31T02:15:36;3.53;;;2.80;;
16593;SDS011;8410;52.532;13.336;2023-07-31T02:18:04;3.63;;;2.50;;
16593;SDS011;8410;52.532;13.336;2023-07-31T02:20:33;3.87;;;2.60;;
16593;SDS011;8410;52.532;13.336;2023-07-31T02:23:01;5.23;;;3.10;;
16593;SDS011;8410;52.532;13.336;2023-07-31T02:25:29;3.57;;;2.67;;
16593;SDS011;8410;52.532;13.336;2023-07-31T02:27:56;2.50;;;2.27;;
16593;SDS011;8410;52.532;13.336;2023-07-31T02:30:24;4.73;;;3.00;;
16593;SDS011;8410;52.532;13.336;2023-07-31T02:32:53;3.23;;;2.67;;
16593;SDS011;8410;52.532;13.336;2023-07-31T02:35:20;3.63;;;2.50;;
16593;SDS011;8410;52.532;13.336;2023-07-31T02:37:47;4.13;;;2.93;;
16593;SDS011;8410;52.532;13.336;2023-07-31T02:40:15;4.57;;;2.70;;
16593;SDS011;8410;52.532;13.336;2023-07-31T02:42:43;4.17;;;2.73;;
16593;SDS011;8410;52.532;13.336;2023-07-31T02:45:10;3.77;;;2.97;;
16593;SDS011;8410;52.532;13.336;2023-07-31T02:47:37;6.57;;;3.40;;
16593;SDS011;8410;52.532;13.336;2023-07-31T02:50:07;4.57;;;3.20;;
16593;SDS011;8410;52.532;13.336;2023-07-31T02:52:35;3.93;;;2.93;;
16593;SDS011;8410;52.532;13.336;2023-07-31T02:55:02;4.37;;;2.93;;
16593;SDS011;8410;52.532;13.336;2023-07-31T02:57:30;4.93;;;3.03;;
16593;SDS011;8410;52.532;13.336;2023-07-31T02:59:58;4.80;;;2.80;;
16593;SDS011;8410;52.532;13.336;2023-07-31T03:02:25;4.80;;;2.97;;
16593;SDS011;8410;52.532;13.336;2023-07-31T03:04:53;4.10;;;2.40;;
16593;SDS011;8410;52.532;13.336;2023-07-31T03:07:22;4.97;;;2.77;;
16593;SDS011;8410;52.532;13.336;2023-07-31T03:09:49;3.80;;;3.33;;
16593;SDS011;8410;52.532;13.336;2023-07-31T03:12:17;5.77;;;3.60;;
16593;SDS011;8410;52.532;13.336;2023-07-31T03:14:45;4.17;;;3.20;;
16593;SDS011;8410;52.532;13.336;2023-07-31T03:17:13;7.47;;;3.73;;
16593;SDS011;8410;52.532;13.336;2023-07-31T03:19:40;5.70;;;3.67;;
16593;SDS011;8410;52.532;13.336;2023-07-31T03:22:08;5.27;;;3.73;;
16593;SDS011;8410;52.532;13.336;2023-07-31T03:24:36;5.87;;;3.50;;
16593;SDS011;8410;52.532;13.336;2023-07-31T03:27:04;5.83;;;4.33;;
16593;SDS011;8410;52.532;13.336;2023-07-31T03:29:32;5.63;;;3.23;;
16593;SDS011;8410;52.532;13.336;2023-07-31T03:32:00;7.77;;;3.63;;
16593;SDS011;8410;52.532;13.336;2023-07-31T03:34:27;4.47;;;3.50;;
16593;SDS011;8410;52.532;13.336;2023-07-31T03:36:55;6.00;;;3.70;;
16593;SDS011;8410;52.532;13.336;2023-07-31T03:39:22;4.27;;;3.37;;
16593;SDS011;8410;52.532;13.336;2023-07-31T03:41:51;7.83;;;3.57;;
16593;SDS011;8410;52.532;13.336;2023-07-31T03:44:19;4.43;;;3.57;;
16593;SDS011;8410;52.532;13.336;2023-07-31T03:46:46;6.53;;;3.93;;
16593;SDS011;8410;52.532;13.336;2023-07-31T03:49:14;7.07;;;3.97;;
16593;SDS011;8410;52.532;13.336;2023-07-31T03:51:41;6.03;;;3.87;;
16593;SDS011;8410;52.532;13.336;2023-07-31T03:54:09;4.63;;;3.30;;
16593;SDS011;8410;52.532;13.336;2023-07-31T03:56:36;5.30;;;3.30;;
16593;SDS011;8410;52.532;13.336;2023-07-31T03:59:06;5.43;;;3.60;;
16593;SDS011;8410;52.532;13.336;2023-07-31T04:01:34;5.70;;;3.50;;
16593;SDS011;8410;52.532;13.336;2023-07-31T04:04:02;4.93;;;3.63;;
16593;SDS011;8410;52.532;13.336;2023-07-31T04:06:30;6.10;;;4.00;;
16593;SDS011;8410;52.532;13.336;2023-07-31T04:08:57;7.27;;;3.80;;
16593;SDS011;8410;52.532;13.336;2023-07-31T04:11:25;7.93;;;4.33;;
16593;SDS011;8410;52.532;13.336;2023-07-31T04:13:52;5.90;;;4.33;;
16593;SDS011;8410;52.532;13.336;2023-07-31T04:16:21;3.53;;;3.10;;
16593;SDS011;8410;52.532;13.336;2023-07-31T04:18:48;4.73;;;3.50;;
16593;SDS011;8410;52.532;13.336;2023-07-31T04:21:16;7.77;;;3.50;;
16593;SDS011;8410;52.532;13.336;2023-07-31T04:23:45;5.23;;;3.80;;
16593;SDS011;8410;52.532;13.336;2023-07-31T04:26:13;5.47;;;3.80;;
16593;SDS011;8410;52.532;13.336;2023-07-31T04:28:40;3.90;;;3.47;;
16593;SDS011;8410;52.532;13.336;2023-07-31T04:31:08;5.53;;;3.50;;
16593;SDS011;8410;52.532;13.336;2023-07-31T04:33:36;6.50;;;3.63;;
16593;SDS011;8410;52.532;13.336;2023-07-31T04:36:04;6.73;;;3.13;;
16593;SDS011;8410;52.532;13.336;2023-07-31T04:38:32;7.30;;;3.40;;
16593;SDS011;8410;52.532;13.336;2023-07-31T04:40:59;6.33;;;3.73;;
16593;SDS011;8410;52.532;13.336;2023-07-31T04:43:27;5.37;;;3.67;;
16593;SDS011;8410;52.532;13.336;2023-07-31T04:45:54;6.13;;;3.73;;
16593;SDS011;8410;52.532;13.336;2023-07-31T04:48:22;5.17;;;3.63;;
16593;SDS011;8410;52.532;13.336;2023-07-31T04:50:51;4.90;;;3.30;;
16593;SDS011;8410;52.532;13.336;2023-07-31T04:53:18;8.23;;;4.00;;
16593;SDS011;8410;52.532;13.336;2023-07-31T04:55:46;7.57;;;3.53;;
16593;SDS011;8410;52.532;13.336;2023-07-31T04:58:13;8.77;;;3.83;;
16593;SDS011;8410;52.532;13.336;2023-07-31T05:00:41;7.03;;;3.30;;
16593;SDS011;8410;52.532;13.336;2023-07-31T05:03:08;4.47;;;3.87;;
16593;SDS011;8410;52.532;13.336;2023-07-31T05:05:37;5.50;;;3.40;;
16593;SDS011;8410;52.532;13.336;2023-07-31T05:08:06;8.37;;;4.60;;
16593;SDS011;8410;52.532;13.336;2023-07-31T05:10:33;6.13;;;4.17;;
16593;SDS011;8410;52.532;13.336;2023-07-31T05:13:01;6.97;;;3.87;;
16593;SDS011;8410;52.532;13.336;2023-07-31T05:15:28;5.20;;;3.93;;
16593;SDS011;8410;52.532;13.336;2023-07-31T05:17:56;7.67;;;3.60;;
16593;SDS011;8410;52.532;13.336;2023-07-31T05:20:24;5.67;;;3.80;;
16593;SDS011;8410;52.532;13.336;2023-07-31T05:22:51;7.33;;;3.80;;
16593;SDS011;8410;52.532;13.336;2023-07-31T05:25:20;7.87;;;4.33;;
16593;SDS011;8410;52.532;13.336;2023-07-31T05:27:47;6.47;;;4.13;;
16593;SDS011;8410;52.532;13.336;2023-07-31T05:30:15;5.17;;;3.50;;
16593;SDS011;8410;52.532;13.336;2023-07-31T05:32:43;5.77;;;3.60;;
16593;SDS011;8410;52.532;13.336;2023-07-31T05:35:10;8.93;;;3.90;;
16593;SDS011;8410;52.532;13.336;2023-07-31T05:37:38;5.97;;;4.47;;
16593;SDS011;8410;52.532;13.336;2023-07-31T05:40:06;6.33;;;3.97;;
16593;SDS011;8410;52.532;13.336;2023-07-31T05:42:35;5.80;;;3.83;;
16593;SDS011;8410;52.532;13.336;2023-07-31T05:45:05;5.70;;;3.97;;
16593;SDS011;8410;52.532;13.336;2023-07-31T05:47:33;6.97;;;4.17;;
16593;SDS011;8410;52.532;13.336;2023-07-31T05:50:01;4.40;;;3.20;;
16593;SDS011;8410;52.532;13.336;2023-07-31T05:52:28;4.97;;;3.60;;
16593;SDS011;8410;52.532;13.336;2023-07-31T05:54:56;5.70;;;4.67;;
16593;SDS011;8410;52.532;13.336;2023-07-31T05:57:23;8.50;;;3.97;;
16593;SDS011;8410;52.532;13.336;2023-07-31T05:59:52;6.73;;;3.97;;
16593;SDS011;8410;52.532;13.336;2023-07-31T06:02:20;4.77;;;3.47;;
16593;SDS011;8410;52.532;13.336;2023-07-31T06:04:48;5.70;;;4.07;;
16593;SDS011;8410;52.532;13.336;2023-07-31T06:07:15;5.17;;;3.57;;
16593;SDS011;8410;52.532;13.336;2023-07-31T06:09:43;5.77;;;3.17;;
16593;SDS011;8410;52.532;13.336;2023-07-31T06:12:10;6.83;;;3.23;;
16593;SDS011;8410;52.532;13.336;2023-07-31T06:14:38;4.83;;;3.23;;
16593;SDS011;8410;52.532;13.336;2023-07-31T06:17:07;4.50;;;2.80;;
16593;SDS011;8410;52.532;13.336;2023-07-31T06:19:35;5.30;;;3.27;;
16593;SDS011;8410;52.532;13.336;2023-07-31T06:22:02;5.63;;;3.60;;
16593;SDS011;8410;52.532;13.336;2023-07-31T06:24:30;5.53;;;3.50;;
16593;SDS011;8410;52.532;13.336;2023-07-31T06:26:58;6.50;;;3.10;;
16593;SDS011;8410;52.532;13.336;2023-07-31T06:29:25;4.57;;;3.40;;
16593;SDS011;8410;52.532;13.336;2023-07-31T06:31:52;4.00;;;3.00;;
16593;SDS011;8410;52.532;13.336;2023-07-31T06:34:21;5.27;;;3.13;;
16593;SDS011;8410;52.532;13.336;2023-07-31T06:36:49;3.50;;;3.20;;
16593;SDS011;8410;52.532;13.336;2023-07-31T06:39:16;3.73;;;2.90;;
16593;SDS011;8410;52.532;13.336;2023-07-31T06:41:44;5.23;;;2.90;;
16593;SDS011;8410;52.532;13.336;2023-07-31T06:44:11;5.67;;;3.20;;
16593;SDS011;8410;52.532;13.336;2023-07-31T06:46:39;4.00;;;2.83;;
16593;SDS011;8410;52.532;13.336;2023-07-31T06:49:07;6.27;;;3.20;;
16593;SDS011;8410;52.532;13.336;2023-07-31T06:51:36;3.97;;;2.87;;
16593;SDS011;8410;52.532;13.336;2023-07-31T06:54:04;6.73;;;3.17;;
16593;SDS011;8410;52.532;13.336;2023-07-31T06:56:32;4.97;;;2.97;;
16593;SDS011;8410;52.532;13.336;2023-07-31T06:59:00;3.57;;;2.83;;
16593;SDS011;8410;52.532;13.336;2023-07-31T07:01:27;14.00;;;9.73;;
16593;SDS011;8410;52.532;13.336;2023-07-31T07:03:55;4.27;;;3.00;;
16593;SDS011;8410;52.532;13.336;2023-07-31T07:06:23;5.13;;;3.20;;
16593;SDS011;8410;52.532;13.336;2023-07-31T07:08:51;4.13;;;2.63;;
16593;SDS011;8410;52.532;13.336;2023-07-31T07:11:19;5.67;;;3.07;;
16593;SDS011;8410;52.532;13.336;2023-07-31T07:13:46;3.53;;;2.87;;
16593;SDS011;8410;52.532;13.336;2023-07-31T07:16:14;4.87;;;2.67;;
16593;SDS011;8410;52.532;13.336;2023-07-31T07:18:41;4.00;;;2.70;;
16593;SDS011;8410;52.532;13.336;2023-07-31T07:21:28;6.27;;;3.17;;
16593;SDS011;8410;52.532;13.336;2023-07-31T07:23:56;3.97;;;3.50;;
16593;SDS011;8410;52.532;13.336;2023-07-31T07:26:24;5.13;;;3.00;;
16593;SDS011;8410;52.532;13.336;2023-07-31T07:28:51;3.93;;;2.77;;
16593;SDS011;8410;52.532;13.336;2023-07-31T07:31:19;5.00;;;2.80;;
16593;SDS011;8410;52.532;13.336;2023-07-31T07:33:46;5.70;;;2.70;;
16593;SDS011;8410;52.532;13.336;2023-07-31T07:36:14;5.07;;;3.00;;
16593;SDS011;8410;52.532;13.336;2023-07-31T07:38:41;4.20;;;2.60;;
16593;SDS011;8410;52.532;13.336;2023-07-31T07:41:10;4.70;;;2.50;;
16593;SDS011;8410;52.532;13.336;2023-07-31T07:43:37;5.50;;;2.97;;
16593;SDS011;8410;52.532;13.336;2023-07-31T07:46:05;5.97;;;2.90;;
16593;SDS011;8410;52.532;13.336;2023-07-31T07:48:33;6.43;;;3.03;;
16593;SDS011;8410;52.532;13.336;2023-07-31T07:51:00;4.37;;;2.90;;
16593;SDS011;8410;52.532;13.336;2023-07-31T07:53:27;4.10;;;2.70;;
16593;SDS011;8410;52.532;13.336;2023-07-31T07:55:55;4.87;;;2.87;;
16593;SDS011;8410;52.532;13.336;2023-07-31T07:58:24;11.30;;;3.40;;
16593;SDS011;8410;52.532;13.336;2023-07-31T08:00:51;7.10;;;3.07;;
16593;SDS011;8410;52.532;13.336;2023-07-31T08:03:19;6.47;;;3.80;;
16593;SDS011;8410;52.532;13.336;2023-07-31T08:05:47;5.67;;;3.53;;
16593;SDS011;8410;52.532;13.336;2023-07-31T08:08:15;5.80;;;3.50;;
16593;SDS011;8410;52.532;13.336;2023-07-31T08:10:43;6.47;;;3.80;;
16593;SDS011;8410;52.532;13.336;2023-07-31T08:13:11;5.20;;;3.27;;
16593;SDS011;8410;52.532;13.336;2023-07-31T08:15:41;4.40;;;3.10;;
16593;SDS011;8410;52.532;13.336;2023-07-31T08:18:09;3.87;;;2.77;;
16593;SDS011;8410;52.532;13.336;2023-07-31T08:20:38;11.70;;;2.60;;
16593;SDS011;8410;52.532;13.336;2023-07-31T08:23:05;5.97;;;2.70;;
16593;SDS011;8410;52.532;13.336;2023-07-31T08:25:34;4.80;;;2.70;;
16593;SDS011;8410;52.532;13.336;2023-07-31T08:28:01;3.93;;;2.70;;
16593;SDS011;8410;52.532;13.336;2023-07-31T08:30:29;3.30;;;2.30;;
16593;SDS011;8410;52.532;13.336;2023-07-31T08:32:58;3.47;;;2.50;;
16593;SDS011;8410;52.532;13.336;2023-07-31T08:35:26;4.53;;;2.80;;
16593;SDS011;8410;52.532;13.336;2023-07-31T08:37:55;3.60;;;2.73;;
16593;SDS011;8410;52.532;13.336;2023-07-31T08:40:22;4.10;;;2.93;;
16593;SDS011;8410;52.532;13.336;2023-07-31T08:42:52;3.00;;;2.60;;
16593;SDS011;8410;52.532;13.336;2023-07-31T08:45:22;4.00;;;2.67;;
16593;SDS011;8410;52.532;13.336;2023-07-31T08:47:51;3.33;;;2.33;;
16593;SDS011;8410;52.532;13.336;2023-07-31T08:50:20;2.70;;;2.50;;
16593;SDS011;8410;52.532;13.336;2023-07-31T08:52:49;3.03;;;2.55;;
16593;SDS011;8410;52.532;13.336;2023-07-31T08:55:17;4.27;;;2.33;;
16593;SDS011;8410;52.532;13.336;2023-07-31T08:57:50;3.67;;;2.60;;
16593;SDS011;8410;52.532;13.336;2023-07-31T09:00:19;3.03;;;2.70;;
16593;SDS011;8410;52.532;13.336;2023-07-31T09:02:51;3.20;;;2.40;;
16593;SDS011;8410;52.532;13.336;2023-07-31T09:05:24;5.27;;;3.00;;
16593;SDS011;8410;52.532;13.336;2023-07-31T09:07:53;4.53;;;2.30;;
16593;SDS011;8410;52.532;13.336;2023-07-31T09:10:23;2.47;;;1.90;;
16593;SDS011;8410;52.532;13.336;2023-07-31T09:12:51;2.95;;;2.15;;
16593;SDS011;8410;52.532;13.336;2023-07-31T09:15:19;4.60;;;2.05;;
16593;SDS011;8410;52.532;13.336;2023-07-31T09:18:04;3.63;;;2.30;;
16593;SDS011;8410;52.532;13.336;2023-07-31T09:20:34;2.58;;;2.05;;
16593;SDS011;8410;52.532;13.336;2023-07-31T09:23:04;2.78;;;2.25;;
16593;SDS011;8410;52.532;13.336;2023-07-31T09:25:34;3.25;;;1.98;;
16593;SDS011;8410;52.532;13.336;2023-07-31T09:28:03;2.78;;;1.83;;
16593;SDS011;8410;52.532;13.336;2023-07-31T09:30:32;3.20;;;2.33;;
16593;SDS011;8410;52.532;13.336;2023-07-31T09:33:12;2.60;;;1.97;;
16593;SDS011;8410;52.532;13.336;2023-07-31T09:35:41;2.33;;;2.10;;
16593;SDS011;8410;52.532;13.336;2023-07-31T09:38:10;2.40;;;2.00;;
16593;SDS011;8410;52.532;13.336;2023-07-31T09:40:39;2.30;;;1.87;;
16593;SDS011;8410;52.532;13.336;2023-07-31T09:43:08;2.80;;;2.28;;
16593;SDS011;8410;52.532;13.336;2023-07-31T09:45:37;2.33;;;1.93;;
16593;SDS011;8410;52.532;13.336;2023-07-31T09:48:07;2.70;;;1.90;;
16593;SDS011;8410;52.532;13.336;2023-07-31T09:50:36;3.17;;;2.20;;
16593;SDS011;8410;52.532;13.336;2023-07-31T09:53:06;2.27;;;2.00;;
16593;SDS011;8410;52.532;13.336;2023-07-31T09:55:34;1.90;;;1.70;;
16593;SDS011;8410;52.532;13.336;2023-07-31T09:58:04;3.40;;;2.77;;
16593;SDS011;8410;52.532;13.336;2023-07-31T10:00:33;2.83;;;1.80;;
16593;SDS011;8410;52.532;13.336;2023-07-31T10:03:02;3.53;;;2.40;;
16593;SDS011;8410;52.532;13.336;2023-07-31T10:05:34;2.00;;;1.67;;
16593;SDS011;8410;52.532;13.336;2023-07-31T10:08:02;3.20;;;1.98;;
16593;SDS011;8410;52.532;13.336;2023-07-31T10:10:32;1.88;;;1.50;;
16593;SDS011;8410;52.532;13.336;2023-07-31T10:13:02;2.22;;;1.80;;
16593;SDS011;8410;52.532;13.336;2023-07-31T10:15:32;3.65;;;2.30;;
16593;SDS011;8410;52.532;13.336;2023-07-31T10:18:00;3.17;;;2.13;;
16593;SDS011;8410;52.532;13.336;2023-07-31T10:20:29;3.10;;;2.40;;
16593;SDS011;8410;52.532;13.336;2023-07-31T10:22:57;6.13;;;3.08;;
16593;SDS011;8410;52.532;13.336;2023-07-31T10:25:25;3.53;;;3.20;;
16593;SDS011;8410;52.532;13.336;2023-07-31T10:27:55;2.90;;;2.60;;
16593;SDS011;8410;52.532;13.336;2023-07-31T10:30:26;7.07;;;3.20;;
16593;SDS011;8410;52.532;13.336;2023-07-31T10:32:55;3.50;;;3.20;;
16593;SDS011;8410;52.532;13.336;2023-07-31T10:35:24;6.25;;;3.60;;
16593;SDS011;8410;52.532;13.336;2023-07-31T10:37:52;4.25;;;3.70;;
16593;SDS011;8410;52.532;13.336;2023-07-31T10:40:23;4.40;;;4.00;;
16593;SDS011;8410;52.532;13.336;2023-07-31T10:42:52;5.10;;;3.60;;
16593;SDS011;8410;52.532;13.336;2023-07-31T10:45:24;3.92;;;3.50;;
16593;SDS011;8410;52.532;13.336;2023-07-31T10:48:03;7.40;;;4.20;;
16593;SDS011;8410;52.532;13.336;2023-07-31T10:50:32;5.18;;;3.67;;
16593;SDS011;8410;52.532;13.336;2023-07-31T10:53:03;5.03;;;4.35;;
16593;SDS011;8410;52.532;13.336;2023-07-31T10:55:35;6.30;;;4.32;;
16593;SDS011;8410;52.532;13.336;2023-07-31T10:58:09;5.80;;;3.80;;
16593;SDS011;8410;52.532;13.336;2023-07-31T11:00:38;6.65;;;4.72;;
16593;SDS011;8410;52.532;13.336;2023-07-31T11:03:07;4.40;;;3.30;;
16593;SDS011;8410;52.532;13.336;2023-07-31T11:05:52;6.47;;;3.92;;
16593;SDS011;8410;52.532;13.336;2023-07-31T11:08:21;5.15;;;4.10;;
16593;SDS011;8410;52.532;13.336;2023-07-31T11:10:50;6.57;;;3.85;;
16593;SDS011;8410;52.532;13.336;2023-07-31T11:13:33;3.40;;;3.10;;
16593;SDS011;8410;52.532;13.336;2023-07-31T11:16:01;4.82;;;3.10;;
16593;SDS011;8410;52.532;13.336;2023-07-31T11:18:29;5.95;;;3.15;;
16593;SDS011;8410;52.532;13.336;2023-07-31T11:20:56;7.18;;;3.40;;
16593;SDS011;8410;52.532;13.336;2023-07-31T11:23:24;5.15;;;3.58;;
16593;SDS011;8410;52.532;13.336;2023-07-31T11:25:51;5.07;;;3.50;;
16593;SDS011;8410;52.532;13.336;2023-07-31T11:28:19;5.10;;;3.83;;
16593;SDS011;8410;52.532;13.336;2023-07-31T11:30:48;8.48;;;3.67;;
16593;SDS011;8410;52.532;13.336;2023-07-31T11:33:15;5.82;;;4.05;;
16593;SDS011;8410;52.532;13.336;2023-07-31T11:35:44;4.85;;;3.58;;
16593;SDS011;8410;52.532;13.336;2023-07-31T11:38:20;5.13;;;3.65;;
16593;SDS011;8410;52.532;13.336;2023-07-31T11:40:49;4.43;;;3.42;;
16593;SDS011;8410;52.532;13.336;2023-07-31T11:43:18;3.88;;;2.95;;
16593;SDS011;8410;52.532;13.336;2023-07-31T11:45:48;7.55;;;3.78;;
16593;SDS011;8410;52.532;13.336;2023-07-31T11:48:19;6.82;;;6.13;;
16593;SDS011;8410;52.532;13.336;2023-07-31T11:50:48;5.90;;;5.40;;
16593;SDS011;8410;52.532;13.336;2023-07-31T11:53:18;5.05;;;4.65;;
16593;SDS011;8410;52.532;13.336;2023-07-31T11:55:48;5.35;;;3.50;;
16593;SDS011;8410;52.532;13.336;2023-07-31T11:58:17;7.60;;;4.50;;
16593;SDS011;8410;52.532;13.336;2023-07-31T12:00:45;5.18;;;4.40;;
16593;SDS011;8410;52.532;13.336;2023-07-31T12:03:15;6.07;;;3.55;;
16593;SDS011;8410;52.532;13.336;2023-07-31T12:05:43;6.55;;;3.75;;
16593;SDS011;8410;52.532;13.336;2023-07-31T12:08:11;5.50;;;3.90;;
16593;SDS011;8410;52.532;13.336;2023-07-31T12:10:39;5.47;;;3.60;;
16593;SDS011;8410;52.532;13.336;2023-07-31T12:13:08;5.22;;;3.88;;
16593;SDS011;8410;52.532;13.336;2023-07-31T12:15:40;3.95;;;3.45;;
16593;SDS011;8410;52.532;13.336;2023-07-31T12:18:10;4.40;;;3.88;;
16593;SDS011;8410;52.532;13.336;2023-07-31T12:20:44;5.00;;;3.53;;
16593;SDS011;8410;52.532;13.336;2023-07-31T12:23:13;5.15;;;3.78;;
16593;SDS011;8410;52.532;13.336;2023-07-31T12:25:42;6.18;;;3.50;;
16593;SDS011;8410;52.532;13.336;2023-07-31T12:28:09;5.28;;;3.85;;
16593;SDS011;8410;52.532;13.336;2023-07-31T12:30:39;4.82;;;3.40;;
16593;SDS011;8410;52.532;13.336;2023-07-31T12:33:12;5.68;;;2.80;;
16593;SDS011;8410;52.532;13.336;2023-07-31T12:35:41;4.00;;;3.00;;
16593;SDS011;8410;52.532;13.336;2023-07-31T12:38:12;6.50;;;2.90;;
16593;SDS011;8410;52.532;13.336;2023-07-31T12:40:41;5.78;;;3.72;;
16593;SDS011;8410;52.532;13.336;2023-07-31T12:43:09;4.20;;;3.20;;
16593;SDS011;8410;52.532;13.336;2023-07-31T12:45:36;4.28;;;3.10;;
16593;SDS011;8410;52.532;13.336;2023-07-31T12:48:04;4.18;;;3.47;;
16593;SDS011;8410;52.532;13.336;2023-07-31T12:50:32;6.13;;;3.40;;
16593;SDS011;8410;52.532;13.336;2023-07-31T12:52:59;3.65;;;3.00;;
16593;SDS011;8410;52.532;13.336;2023-07-31T12:55:28;4.50;;;2.90;;
16593;SDS011;8410;52.532;13.336;2023-07-31T12:57:56;4.85;;;2.97;;
16593;SDS011;8410;52.532;13.336;2023-07-31T13:00:23;4.45;;;3.20;;
16593;SDS011;8410;52.532;13.336;2023-07-31T13:02:52;3.60;;;2.45;;
16593;SDS011;8410;52.532;13.336;2023-07-31T13:05:20;3.42;;;2.53;;
16593;SDS011;8410;52.532;13.336;2023-07-31T13:07:48;3.78;;;2.90;;
16593;SDS011;8410;52.532;13.336;2023-07-31T13:10:18;5.05;;;2.83;;
16593;SDS011;8410;52.532;13.336;2023-07-31T13:12:47;3.97;;;2.10;;
16593;SDS011;8410;52.532;13.336;2023-07-31T13:15:15;2.90;;;2.15;;
16593;SDS011;8410;52.532;13.336;2023-07-31T13:17:43;3.22;;;2.53;;
16593;SDS011;8410;52.532;13.336;2023-07-31T13:20:11;5.70;;;2.78;;
16593;SDS011;8410;52.532;13.336;2023-07-31T13:22:38;3.22;;;2.20;;
16593;SDS011;8410;52.532;13.336;2023-07-31T13:25:07;2.40;;;2.20;;
16593;SDS011;8410;52.532;13.336;2023-07-31T13:27:35;4.65;;;2.50;;
16593;SDS011;8410;52.532;13.336;2023-07-31T13:30:05;5.65;;;2.45;;
16593;SDS011;8410;52.532;13.336;2023-07-31T13:32:34;3.05;;;2.35;;
16593;SDS011;8410;52.532;13.336;2023-07-31T13:35:05;3.08;;;2.15;;
16593;SDS011;8410;52.532;13.336;2023-07-31T13:37:33;2.92;;;2.28;;
16593;SDS011;8410;52.532;13.336;2023-07-31T13:40:01;3.60;;;2.65;;
16593;SDS011;8410;52.532;13.336;2023-07-31T13:42:31;3.47;;;2.65;;
16593;SDS011;8410;52.532;13.336;2023-07-31T13:44:59;7.53;;;2.80;;
16593;SDS011;8410;52.532;13.336;2023-07-31T13:47:30;4.45;;;2.63;;
16593;SDS011;8410;52.532;13.336;2023-07-31T13:49:58;3.40;;;2.42;;
16593;SDS011;8410;52.532;13.336;2023-07-31T13:52:25;3.55;;;3.03;;
16593;SDS011;8410;52.532;13.336;2023-07-31T13:54:53;4.43;;;2.95;;
16593;SDS011;8410;52.532;13.336;2023-07-31T13:57:21;4.35;;;2.70;;
16593;SDS011;8410;52.532;13.336;2023-07-31T13:59:49;5.03;;;3.40;;
16593;SDS011;8410;52.532;13.336;2023-07-31T14:02:17;5.18;;;3.10;;
16593;SDS011;8410;52.532;13.336;2023-07-31T14:04:46;3.75;;;3.25;;
16593;SDS011;8410;52.532;13.336;2023-07-31T14:07:13;6.45;;;3.30;;
16593;SDS011;8410;52.532;13.336;2023-07-31T14:09:41;4.47;;;3.00;;
16593;SDS011;8410;52.532;13.336;2023-07-31T14:12:08;4.55;;;3.65;;
16593;SDS011;8410;52.532;13.336;2023-07-31T14:14:36;5.70;;;3.10;;
16593;SDS011;8410;52.532;13.336;2023-07-31T14:17:03;4.70;;;2.97;;
16593;SDS011;8410;52.532;13.336;2023-07-31T14:19:32;5.30;;;3.70;;
16593;SDS011;8410;52.532;13.336;2023-07-31T14:22:01;5.25;;;3.15;;
16593;SDS011;8410;52.532;13.336;2023-07-31T14:24:36;6.35;;;4.35;;
16593;SDS011;8410;52.532;13.336;2023-07-31T14:27:04;5.78;;;3.35;;
16593;SDS011;8410;52.532;13.336;2023-07-31T14:29:32;5.78;;;3.42;;
16593;SDS011;8410;52.532;13.336;2023-07-31T14:31:59;3.40;;;3.00;;
16593;SDS011;8410;52.532;13.336;2023-07-31T14:34:27;5.15;;;3.47;;
16593;SDS011;8410;52.532;13.336;2023-07-31T14:36:54;5.82;;;3.13;;
16593;SDS011;8410;52.532;13.336;2023-07-31T14:39:23;5.05;;;3.08;;
16593;SDS011;8410;52.532;13.336;2023-07-31T14:41:51;6.43;;;3.75;;
16593;SDS011;8410;52.532;13.336;2023-07-31T14:44:18;5.13;;;2.92;;
16593;SDS011;8410;52.532;13.336;2023-07-31T14:46:46;3.50;;;3.03;;
16593;SDS011;8410;52.532;13.336;2023-07-31T14:49:13;5.10;;;2.85;;
16593;SDS011;8410;52.532;13.336;2023-07-31T14:51:41;3.70;;;2.88;;
16593;SDS011;8410;52.532;13.336;2023-07-31T14:54:08;4.65;;;3.10;;
16593;SDS011;8410;52.532;13.336;2023-07-31T14:56:37;3.78;;;2.83;;
16593;SDS011;8410;52.532;13.336;2023-07-31T14:59:05;4.65;;;3.17;;